sensor_id;sensor_type;location;lat;lon;timestamp;pressure;altitude;pressure_sealevel;temperature;humidity
33163;BME280;29282;45.656;11.302;2022-12-10T00:01:40;96780.06;;;18.92;50.23
33163;BME280;29282;45.656;11.302;2022-12-10T00:04:06;96778.91;;;18.93;50.32
33163;BME280;29282;45.656;11.302;2022-12-10T00:06:35;96771.41;;;18.90;50.20
33163;BME280;29282;45.656;11.302;2022-12-10T00:09:03;96767.88;;;18.90;50.17
33163;BME280;29282;45.656;11.302;2022-12-10T00:11:29;96771.41;;;18.90;50.20
33163;BME280;29282;45.656;11.302;2022-12-10T00:13:55;96774.56;;;18.89;50.34
33163;BME280;29282;45.656;11.302;2022-12-10T00:16:23;96774.91;;;18.87;50.26
33163;BME280;29282;45.656;11.302;2022-12-10T00:18:50;96770.25;;;18.88;50.26
33163;BME280;29282;45.656;11.302;2022-12-10T00:21:18;96777.66;;;18.87;50.34
33163;BME280;29282;45.656;11.302;2022-12-10T00:23:45;96773.72;;;18.85;50.29
33163;BME280;29282;45.656;11.302;2022-12-10T00:26:16;96786.28;;;18.86;50.19
33163;BME280;29282;45.656;11.302;2022-12-10T00:28:42;96785.84;;;18.84;50.36
33163;BME280;29282;45.656;11.302;2022-12-10T00:31:13;96784.66;;;18.81;50.29
33163;BME280;29282;45.656;11.302;2022-12-10T00:33:40;96781.91;;;18.81;50.35
33163;BME280;29282;45.656;11.302;2022-12-10T00:36:12;96778.75;;;18.79;50.31
33163;BME280;29282;45.656;11.302;2022-12-10T00:38:38;96785.41;;;18.78;50.37
33163;BME280;29282;45.656;11.302;2022-12-10T00:41:05;96776.75;;;18.76;50.31
33163;BME280;29282;45.656;11.302;2022-12-10T00:43:30;96774.78;;;18.76;50.19
33163;BME280;29282;45.656;11.302;2022-12-10T00:45:56;96771.66;;;18.74;50.44
33163;BME280;29282;45.656;11.302;2022-12-10T00:48:23;96770.03;;;18.73;50.44
33163;BME280;29282;45.656;11.302;2022-12-10T00:51:19;96750.41;;;18.71;50.19
33163;BME280;29282;45.656;11.302;2022-12-10T00:53:46;96766.88;;;18.71;50.37
33163;BME280;29282;45.656;11.302;2022-12-10T00:56:14;96764.56;;;18.73;50.34
33163;BME280;29282;45.656;11.302;2022-12-10T00:58:40;96753.16;;;18.71;50.38
33163;BME280;29282;45.656;11.302;2022-12-10T01:03:32;96750.78;;;18.70;50.37
33163;BME280;29282;45.656;11.302;2022-12-10T01:06:07;96755.03;;;18.67;50.45
33163;BME280;29282;45.656;11.302;2022-12-10T01:08:33;96753.50;;;18.70;50.28
33163;BME280;29282;45.656;11.302;2022-12-10T01:10:58;96760.53;;;18.67;50.38
33163;BME280;29282;45.656;11.302;2022-12-10T01:13:24;96758.97;;;18.66;50.42
33163;BME280;29282;45.656;11.302;2022-12-10T01:15:49;96764.09;;;18.68;50.19
33163;BME280;29282;45.656;11.302;2022-12-10T01:18:15;96780.91;;;18.66;50.24
33163;BME280;29282;45.656;11.302;2022-12-10T01:20:40;96778.53;;;18.65;50.33
33163;BME280;29282;45.656;11.302;2022-12-10T01:23:06;96777.75;;;18.64;50.25
33163;BME280;29282;45.656;11.302;2022-12-10T01:25:31;96774.59;;;18.62;50.42
33163;BME280;29282;45.656;11.302;2022-12-10T01:27:57;96776.53;;;18.62;50.44
33163;BME280;29282;45.656;11.302;2022-12-10T01:30:22;96762.03;;;18.61;50.47
33163;BME280;29282;45.656;11.302;2022-12-10T01:32:48;96754.16;;;18.60;50.50
33163;BME280;29282;45.656;11.302;2022-12-10T01:35:13;96753.00;;;18.61;50.30
33163;BME280;29282;45.656;11.302;2022-12-10T01:37:39;96748.69;;;18.60;50.35
33163;BME280;29282;45.656;11.302;2022-12-10T01:40:05;96757.69;;;18.60;50.38
33163;BME280;29282;45.656;11.302;2022-12-10T01:42:31;96744.38;;;18.59;50.25
33163;BME280;29282;45.656;11.302;2022-12-10T01:45:00;96744.72;;;18.57;50.32
33163;BME280;29282;45.656;11.302;2022-12-10T01:47:26;96733.34;;;18.55;50.41
33163;BME280;29282;45.656;11.302;2022-12-10T01:49:52;96745.91;;;18.56;50.44
33163;BME280;29282;45.656;11.302;2022-12-10T01:52:18;96747.06;;;18.55;50.40
33163;BME280;29282;45.656;11.302;2022-12-10T01:54:45;96739.97;;;18.54;50.20
33163;BME280;29282;45.656;11.302;2022-12-10T01:57:17;96730.19;;;18.53;50.35
33163;BME280;29282;45.656;11.302;2022-12-10T01:59:45;96725.88;;;18.52;50.33
33163;BME280;29282;45.656;11.302;2022-12-10T02:05:21;96714.91;;;18.52;50.32
33163;BME280;29282;45.656;11.302;2022-12-10T02:13:45;96715.25;;;18.50;50.55
33163;BME280;29282;45.656;11.302;2022-12-10T02:15:51;96717.59;;;18.48;50.32
33163;BME280;29282;45.656;11.302;2022-12-10T02:18:27;96705.84;;;18.48;50.62
33163;BME280;29282;45.656;11.302;2022-12-10T02:20:58;96707.00;;;18.47;50.38
33163;BME280;29282;45.656;11.302;2022-12-10T02:23:26;96707.38;;;18.45;50.37
33163;BME280;29282;45.656;11.302;2022-12-10T02:26:00;96704.63;;;18.45;50.46
33163;BME280;29282;45.656;11.302;2022-12-10T02:31:19;96717.19;;;18.46;50.39
33163;BME280;29282;45.656;11.302;2022-12-10T02:33:50;96716.78;;;18.44;50.49
33163;BME280;29282;45.656;11.302;2022-12-10T02:36:18;96725.00;;;18.44;50.41
33163;BME280;29282;45.656;11.302;2022-12-10T02:38:47;96721.44;;;18.44;50.34
33163;BME280;29282;45.656;11.302;2022-12-10T02:41:20;96730.50;;;18.44;50.19
33163;BME280;29282;45.656;11.302;2022-12-10T02:43:50;96728.88;;;18.43;50.31
33163;BME280;29282;45.656;11.302;2022-12-10T02:46:17;96723.78;;;18.42;50.44
33163;BME280;29282;45.656;11.302;2022-12-10T02:48:45;96731.22;;;18.41;50.41
33163;BME280;29282;45.656;11.302;2022-12-10T02:51:12;96750.78;;;18.40;50.39
33163;BME280;29282;45.656;11.302;2022-12-10T02:53:44;96742.19;;;18.41;50.25
33163;BME280;29282;45.656;11.302;2022-12-10T03:01:50;96753.53;;;18.40;50.31
33163;BME280;29282;45.656;11.302;2022-12-10T03:07:01;96745.63;;;18.35;50.34
33163;BME280;29282;45.656;11.302;2022-12-10T03:09:59;96752.31;;;18.37;50.33
33163;BME280;29282;45.656;11.302;2022-12-10T03:12:39;96745.63;;;18.35;50.50
33163;BME280;29282;45.656;11.302;2022-12-10T03:15:08;96751.13;;;18.35;50.47
33163;BME280;29282;45.656;11.302;2022-12-10T03:17:36;96747.56;;;18.34;50.38
33163;BME280;29282;45.656;11.302;2022-12-10T03:20:04;96735.81;;;18.34;50.40
33163;BME280;29282;45.656;11.302;2022-12-10T03:22:34;96742.47;;;18.33;50.43
33163;BME280;29282;45.656;11.302;2022-12-10T03:25:01;96738.94;;;18.32;50.47
33163;BME280;29282;45.656;11.302;2022-12-10T03:27:29;96742.47;;;18.33;50.40
33163;BME280;29282;45.656;11.302;2022-12-10T03:29:56;96751.84;;;18.31;50.55
33163;BME280;29282;45.656;11.302;2022-12-10T03:32:25;96745.59;;;18.31;50.39
33163;BME280;29282;45.656;11.302;2022-12-10T03:34:54;96749.13;;;18.31;50.33
33163;BME280;29282;45.656;11.302;2022-12-10T03:37:22;96760.09;;;18.31;50.27
33163;BME280;29282;45.656;11.302;2022-12-10T03:39:48;96758.06;;;18.28;50.30
33163;BME280;29282;45.656;11.302;2022-12-10T03:42:14;96761.59;;;18.29;50.37
33163;BME280;29282;45.656;11.302;2022-12-10T03:44:40;96763.97;;;18.30;50.36
33163;BME280;29282;45.656;11.302;2022-12-10T03:47:08;96742.41;;;18.29;50.43
33163;BME280;29282;45.656;11.302;2022-12-10T03:49:36;96746.72;;;18.30;50.43
33163;BME280;29282;45.656;11.302;2022-12-10T03:52:01;96741.25;;;18.30;50.19
33163;BME280;29282;45.656;11.302;2022-12-10T03:54:27;96745.94;;;18.29;50.32
33163;BME280;29282;45.656;11.302;2022-12-10T03:56:52;96756.56;;;18.31;50.17
33163;BME280;29282;45.656;11.302;2022-12-10T03:59:18;96747.50;;;18.30;50.29
33163;BME280;29282;45.656;11.302;2022-12-10T04:01:44;96738.94;;;18.32;50.25
33163;BME280;29282;45.656;11.302;2022-12-10T04:04:09;96740.88;;;18.31;50.20
33163;BME280;29282;45.656;11.302;2022-12-10T04:06:37;96738.94;;;18.32;50.20
33163;BME280;29282;45.656;11.302;2022-12-10T04:09:03;96725.22;;;18.32;50.13
33163;BME280;29282;45.656;11.302;2022-12-10T04:11:28;96728.31;;;18.30;50.33
33163;BME280;29282;45.656;11.302;2022-12-10T04:13:54;96720.53;;;18.33;50.05
33163;BME280;29282;45.656;11.302;2022-12-10T04:16:39;96719.75;;;18.32;50.00
33163;BME280;29282;45.656;11.302;2022-12-10T04:19:07;96716.22;;;18.31;50.14
33163;BME280;29282;45.656;11.302;2022-12-10T04:21:34;96728.75;;;18.33;50.17
33163;BME280;29282;45.656;11.302;2022-12-10T04:24:21;96718.16;;;18.31;49.92
33163;BME280;29282;45.656;11.302;2022-12-10T04:27:12;96725.59;;;18.30;50.22
33163;BME280;29282;45.656;11.302;2022-12-10T04:29:38;96720.91;;;18.31;50.17
33163;BME280;29282;45.656;11.302;2022-12-10T04:32:04;96730.72;;;18.32;50.05
33163;BME280;29282;45.656;11.302;2022-12-10T04:34:30;96727.19;;;18.31;50.16
33163;BME280;29282;45.656;11.302;2022-12-10T04:36:58;96732.66;;;18.31;50.10
33163;BME280;29282;45.656;11.302;2022-12-10T04:39:23;96731.88;;;18.31;49.98
33163;BME280;29282;45.656;11.302;2022-12-10T04:41:49;96722.84;;;18.30;49.84
33163;BME280;29282;45.656;11.302;2022-12-10T04:44:15;96725.59;;;18.30;50.10
33163;BME280;29282;45.656;11.302;2022-12-10T04:46:41;96733.44;;;18.32;49.99
33163;BME280;29282;45.656;11.302;2022-12-10T04:49:07;96731.88;;;18.31;49.99
33163;BME280;29282;45.656;11.302;2022-12-10T04:51:32;96721.28;;;18.29;50.08
33163;BME280;29282;45.656;11.302;2022-12-10T04:53:58;96722.84;;;18.30;50.17
33163;BME280;29282;45.656;11.302;2022-12-10T04:56:24;96722.44;;;18.28;50.15
33163;BME280;29282;45.656;11.302;2022-12-10T04:58:50;96722.44;;;18.28;50.00
33163;BME280;29282;45.656;11.302;2022-12-10T05:01:15;96717.75;;;18.29;50.05
33163;BME280;29282;45.656;11.302;2022-12-10T05:03:43;96724.00;;;18.29;49.99
33163;BME280;29282;45.656;11.302;2022-12-10T05:06:11;96728.72;;;18.29;50.06
33163;BME280;29282;45.656;11.302;2022-12-10T05:08:38;96724.00;;;18.29;49.86
33163;BME280;29282;45.656;11.302;2022-12-10T05:11:12;96713.03;;;18.29;49.93
33163;BME280;29282;45.656;11.302;2022-12-10T05:13:39;96705.56;;;18.26;49.97
33163;BME280;29282;45.656;11.302;2022-12-10T05:16:06;96705.22;;;18.28;50.09
33163;BME280;29282;45.656;11.302;2022-12-10T05:18:32;96705.22;;;18.28;50.01
33163;BME280;29282;45.656;11.302;2022-12-10T05:21:01;96698.13;;;18.27;50.06
33163;BME280;29282;45.656;11.302;2022-12-10T05:23:28;96701.66;;;18.27;49.93
33163;BME280;29282;45.656;11.302;2022-12-10T05:26:12;96701.66;;;18.27;49.92
33163;BME280;29282;45.656;11.302;2022-12-10T05:29:01;96691.84;;;18.26;49.97
33163;BME280;29282;45.656;11.302;2022-12-10T05:31:28;96684.78;;;18.25;49.98
33163;BME280;29282;45.656;11.302;2022-12-10T05:33:55;96685.59;;;18.26;50.09
33163;BME280;29282;45.656;11.302;2022-12-10T05:36:23;96685.59;;;18.26;50.06
33163;BME280;29282;45.656;11.302;2022-12-10T05:38:49;96680.88;;;18.26;49.85
33163;BME280;29282;45.656;11.302;2022-12-10T05:41:23;96676.56;;;18.25;49.90
33163;BME280;29282;45.656;11.302;2022-12-10T05:43:49;96679.31;;;18.25;49.94
33163;BME280;29282;45.656;11.302;2022-12-10T05:46:18;96673.06;;;18.25;49.90
33163;BME280;29282;45.656;11.302;2022-12-10T05:48:44;96666.75;;;18.24;49.94
33163;BME280;29282;45.656;11.302;2022-12-10T05:51:12;96666.75;;;18.24;50.17
33163;BME280;29282;45.656;11.302;2022-12-10T05:53:39;96664.81;;;18.25;49.98
33163;BME280;29282;45.656;11.302;2022-12-10T05:56:07;96659.75;;;18.27;49.84
33163;BME280;29282;45.656;11.302;2022-12-10T05:58:34;96663.66;;;18.26;49.95
33163;BME280;29282;45.656;11.302;2022-12-10T06:01:05;96658.53;;;18.24;49.96
33163;BME280;29282;45.656;11.302;2022-12-10T06:03:31;96651.13;;;18.25;50.06
33163;BME280;29282;45.656;11.302;2022-12-10T06:05:56;96654.66;;;18.25;50.03
33163;BME280;29282;45.656;11.302;2022-12-10T06:08:22;96645.63;;;18.25;49.84
33163;BME280;29282;45.656;11.302;2022-12-10T06:10:48;96647.56;;;18.24;49.84
33163;BME280;29282;45.656;11.302;2022-12-10T06:13:13;96645.25;;;18.26;49.96
33163;BME280;29282;45.656;11.302;2022-12-10T06:15:40;96642.91;;;18.25;50.00
33163;BME280;29282;45.656;11.302;2022-12-10T06:18:06;96653.03;;;18.24;49.96
33163;BME280;29282;45.656;11.302;2022-12-10T06:20:32;96650.31;;;18.24;49.96
33163;BME280;29282;45.656;11.302;2022-12-10T06:22:57;96642.47;;;18.23;50.19
33163;BME280;29282;45.656;11.302;2022-12-10T06:25:23;96640.50;;;18.23;49.99
33163;BME280;29282;45.656;11.302;2022-12-10T06:27:49;96647.16;;;18.22;50.04
33163;BME280;29282;45.656;11.302;2022-12-10T06:30:14;96647.16;;;18.22;49.89
33163;BME280;29282;45.656;11.302;2022-12-10T06:32:40;96636.19;;;18.22;50.02
33163;BME280;29282;45.656;11.302;2022-12-10T06:35:08;96638.56;;;18.24;50.07
33163;BME280;29282;45.656;11.302;2022-12-10T06:37:34;96640.16;;;18.25;49.88
33163;BME280;29282;45.656;11.302;2022-12-10T06:39:59;96640.16;;;18.25;49.86
33163;BME280;29282;45.656;11.302;2022-12-10T06:42:25;96653.03;;;18.24;49.85
33163;BME280;29282;45.656;11.302;2022-12-10T06:44:50;96649.56;;;18.27;49.97
33163;BME280;29282;45.656;11.302;2022-12-10T06:47:16;96649.56;;;18.27;49.77
33163;BME280;29282;45.656;11.302;2022-12-10T06:49:41;96651.50;;;18.27;49.83
33163;BME280;29282;45.656;11.302;2022-12-10T06:52:07;96646.41;;;18.25;49.92
33163;BME280;29282;45.656;11.302;2022-12-10T06:54:33;96653.47;;;18.26;49.83
33163;BME280;29282;45.656;11.302;2022-12-10T06:56:58;96650.72;;;18.26;49.83
33163;BME280;29282;45.656;11.302;2022-12-10T06:59:24;96659.75;;;18.27;49.77
33163;BME280;29282;45.656;11.302;2022-12-10T07:01:49;96658.94;;;18.26;49.86
33163;BME280;29282;45.656;11.302;2022-12-10T07:04:15;96662.88;;;18.25;49.90
33163;BME280;29282;45.656;11.302;2022-12-10T07:06:42;96664.44;;;18.26;49.94
33163;BME280;29282;45.656;11.302;2022-12-10T07:09:08;96663.66;;;18.26;49.93
33163;BME280;29282;45.656;11.302;2022-12-10T07:11:35;96672.66;;;18.26;49.88
33163;BME280;29282;45.656;11.302;2022-12-10T07:14:01;96673.06;;;18.25;49.86
33163;BME280;29282;45.656;11.302;2022-12-10T07:16:28;96679.72;;;18.27;49.90
33163;BME280;29282;45.656;11.302;2022-12-10T07:18:55;96686.38;;;18.26;50.04
33163;BME280;29282;45.656;11.302;2022-12-10T07:21:26;96682.06;;;18.25;49.85
33163;BME280;29282;45.656;11.302;2022-12-10T07:23:54;96679.31;;;18.25;49.94
33163;BME280;29282;45.656;11.302;2022-12-10T07:26:21;96686.75;;;18.25;49.95
33163;BME280;29282;45.656;11.302;2022-12-10T07:28:47;96678.88;;;18.23;49.98
33163;BME280;29282;45.656;11.302;2022-12-10T07:31:12;96681.63;;;18.23;49.81
33163;BME280;29282;45.656;11.302;2022-12-10T07:33:38;96678.88;;;18.23;49.98
33163;BME280;29282;45.656;11.302;2022-12-10T07:36:11;96680.84;;;18.23;50.06
33163;BME280;29282;45.656;11.302;2022-12-10T07:38:37;96689.84;;;18.23;50.07
33163;BME280;29282;45.656;11.302;2022-12-10T07:41:08;96691.06;;;18.26;49.79
33163;BME280;29282;45.656;11.302;2022-12-10T07:43:35;96693.84;;;18.29;49.84
33163;BME280;29282;45.656;11.302;2022-12-10T07:46:13;96695.53;;;18.38;49.42
33163;BME280;29282;45.656;11.302;2022-12-10T07:48:40;96685.09;;;18.50;49.50
33163;BME280;29282;45.656;11.302;2022-12-10T07:51:06;96696.59;;;18.63;49.14
33163;BME280;29282;45.656;11.302;2022-12-10T07:53:33;96689.72;;;18.76;49.01
33163;BME280;29282;45.656;11.302;2022-12-10T07:55:58;96691.03;;;18.86;48.70
33163;BME280;29282;45.656;11.302;2022-12-10T07:58:24;96691.88;;;18.94;48.56
33163;BME280;29282;45.656;11.302;2022-12-10T08:00:49;96704.88;;;19.00;48.41
33163;BME280;29282;45.656;11.302;2022-12-10T08:03:15;96707.28;;;19.06;48.11
33163;BME280;29282;45.656;11.302;2022-12-10T08:05:41;96699.09;;;19.09;48.29
33163;BME280;29282;45.656;11.302;2022-12-10T08:08:07;96705.38;;;19.10;48.20
33163;BME280;29282;45.656;11.302;2022-12-10T08:10:36;96700.66;;;19.10;48.26
33163;BME280;29282;45.656;11.302;2022-12-10T08:13:02;96712.06;;;19.12;48.46
33163;BME280;29282;45.656;11.302;2022-12-10T08:15:28;96708.16;;;19.13;48.46
33163;BME280;29282;45.656;11.302;2022-12-10T08:17:54;96709.00;;;19.17;48.66
33163;BME280;29282;45.656;11.302;2022-12-10T08:20:21;96704.28;;;19.18;48.42
33163;BME280;29282;45.656;11.302;2022-12-10T08:22:47;96703.56;;;19.24;48.28
33163;BME280;29282;45.656;11.302;2022-12-10T08:25:14;96691.84;;;19.31;48.17
33163;BME280;29282;45.656;11.302;2022-12-10T08:27:39;96700.50;;;19.37;48.02
33163;BME280;29282;45.656;11.302;2022-12-10T08:30:05;96691.50;;;19.36;48.07
33163;BME280;29282;45.656;11.302;2022-12-10T08:32:31;96690.75;;;19.39;48.37
33163;BME280;29282;45.656;11.302;2022-12-10T08:34:57;96696.66;;;19.41;48.49
33163;BME280;29282;45.656;11.302;2022-12-10T08:37:22;96691.94;;;19.42;48.72
33163;BME280;29282;45.656;11.302;2022-12-10T08:39:48;96688.03;;;19.43;48.70
33163;BME280;29282;45.656;11.302;2022-12-10T08:42:13;96686.88;;;19.44;48.78
33163;BME280;29282;45.656;11.302;2022-12-10T08:44:39;96691.19;;;19.45;48.95
33163;BME280;29282;45.656;11.302;2022-12-10T08:47:05;96692.38;;;19.44;49.14
33163;BME280;29282;45.656;11.302;2022-12-10T08:49:40;96692.75;;;19.46;48.98
33163;BME280;29282;45.656;11.302;2022-12-10T08:52:06;96695.13;;;19.47;49.07
33163;BME280;29282;45.656;11.302;2022-12-10T08:54:31;96684.97;;;19.52;48.98
33163;BME280;29282;45.656;11.302;2022-12-10T08:56:57;96685.75;;;19.52;48.93
33163;BME280;29282;45.656;11.302;2022-12-10T08:59:22;96683.03;;;19.56;48.77
33163;BME280;29282;45.656;11.302;2022-12-10T09:01:47;96684.66;;;19.60;48.63
33163;BME280;29282;45.656;11.302;2022-12-10T09:04:13;96694.06;;;19.63;48.79
33163;BME280;29282;45.656;11.302;2022-12-10T09:06:40;96703.13;;;19.63;48.76
33163;BME280;29282;45.656;11.302;2022-12-10T09:09:06;96693.72;;;19.64;48.76
33163;BME280;29282;45.656;11.302;2022-12-10T09:11:33;96688.56;;;19.63;48.68
33163;BME280;29282;45.656;11.302;2022-12-10T09:13:59;96686.69;;;19.67;48.66
33163;BME280;29282;45.656;11.302;2022-12-10T09:16:34;96683.13;;;19.66;48.56
33163;BME280;29282;45.656;11.302;2022-12-10T09:19:01;96675.28;;;19.65;48.71
33163;BME280;29282;45.656;11.302;2022-12-10T09:21:28;96671.31;;;19.62;48.77
33163;BME280;29282;45.656;11.302;2022-12-10T09:23:55;96669.00;;;19.64;48.77
33163;BME280;29282;45.656;11.302;2022-12-10T09:26:22;96669.72;;;19.61;48.83
33163;BME280;29282;45.656;11.302;2022-12-10T09:28:49;96660.72;;;19.61;48.84
33163;BME280;29282;45.656;11.302;2022-12-10T09:31:17;96664.25;;;19.61;48.81
33163;BME280;29282;45.656;11.302;2022-12-10T09:33:44;96660.31;;;19.62;48.77
33163;BME280;29282;45.656;11.302;2022-12-10T09:36:12;96663.84;;;19.63;48.80
33163;BME280;29282;45.656;11.302;2022-12-10T09:38:39;96660.31;;;19.62;48.76
33163;BME280;29282;45.656;11.302;2022-12-10T09:41:32;96657.56;;;19.62;48.99
33163;BME280;29282;45.656;11.302;2022-12-10T09:44:14;96659.53;;;19.62;48.84
33163;BME280;29282;45.656;11.302;2022-12-10T09:46:57;96648.53;;;19.62;48.91
33163;BME280;29282;45.656;11.302;2022-12-10T09:49:26;96647.03;;;19.64;48.87
33163;BME280;29282;45.656;11.302;2022-12-10T09:51:58;96637.56;;;19.62;48.89
33163;BME280;29282;45.656;11.302;2022-12-10T09:56:53;96643.44;;;19.60;48.91
33163;BME280;29282;45.656;11.302;2022-12-10T09:59:39;96640.28;;;19.62;48.90
33163;BME280;29282;45.656;11.302;2022-12-10T10:04:47;96621.84;;;19.62;48.98
33163;BME280;29282;45.656;11.302;2022-12-10T10:07:21;96619.88;;;19.63;48.94
33163;BME280;29282;45.656;11.302;2022-12-10T10:09:50;96611.66;;;19.63;48.94
33163;BME280;29282;45.656;11.302;2022-12-10T10:12:18;96615.19;;;19.63;48.71
33163;BME280;29282;45.656;11.302;2022-12-10T10:14:44;96612.88;;;19.65;48.79
33163;BME280;29282;45.656;11.302;2022-12-10T10:17:21;96605.81;;;19.64;48.88
33163;BME280;29282;45.656;11.302;2022-12-10T10:19:48;96601.84;;;19.62;48.86
33163;BME280;29282;45.656;11.302;2022-12-10T10:22:15;96591.63;;;19.62;48.81
33163;BME280;29282;45.656;11.302;2022-12-10T10:24:43;96588.09;;;19.62;48.90
33163;BME280;29282;45.656;11.302;2022-12-10T10:27:23;96579.91;;;19.65;48.66
33163;BME280;29282;45.656;11.302;2022-12-10T10:29:53;96579.13;;;19.65;48.53
33163;BME280;29282;45.656;11.302;2022-12-10T10:35:05;96565.00;;;19.66;48.68
33163;BME280;29282;45.656;11.302;2022-12-10T10:37:39;96556.38;;;19.68;48.72
33163;BME280;29282;45.656;11.302;2022-12-10T10:40:08;96557.94;;;19.69;48.61
33163;BME280;29282;45.656;11.302;2022-12-10T10:42:46;96552.84;;;19.67;48.62
33163;BME280;29282;45.656;11.302;2022-12-10T10:45:48;96555.38;;;19.39;48.50
33163;BME280;29282;45.656;11.302;2022-12-10T10:48:25;96550.16;;;19.19;48.89
33163;BME280;29282;45.656;11.302;2022-12-10T10:50:53;96545.88;;;19.22;48.76
33163;BME280;29282;45.656;11.302;2022-12-10T10:55:49;96538.94;;;19.42;48.01
33163;BME280;29282;45.656;11.302;2022-12-10T10:58:19;96534.25;;;19.50;47.68
33163;BME280;29282;45.656;11.302;2022-12-10T11:01:06;96531.94;;;19.56;47.60
33163;BME280;29282;45.656;11.302;2022-12-10T11:03:35;96523.72;;;19.59;47.50
33163;BME280;29282;45.656;11.302;2022-12-10T11:06:05;96519.00;;;19.60;47.71
33163;BME280;29282;45.656;11.302;2022-12-10T11:08:31;96519.41;;;19.62;47.45
33163;BME280;29282;45.656;11.302;2022-12-10T11:11:02;96517.06;;;19.60;47.58
33163;BME280;29282;45.656;11.302;2022-12-10T11:13:31;96515.16;;;19.64;47.50
33163;BME280;29282;45.656;11.302;2022-12-10T11:16:10;96510.03;;;19.66;47.21
33163;BME280;29282;45.656;11.302;2022-12-10T11:18:39;96507.28;;;19.66;47.54
33163;BME280;29282;45.656;11.302;2022-12-10T11:23:40;96488.47;;;19.68;47.56
33163;BME280;29282;45.656;11.302;2022-12-10T11:26:24;96493.19;;;19.71;47.56
33163;BME280;29282;45.656;11.302;2022-12-10T11:31:39;96487.31;;;19.73;47.50
33163;BME280;29282;45.656;11.302;2022-12-10T11:50:31;96466.50;;;19.68;48.49
33163;BME280;29282;45.656;11.302;2022-12-10T11:56:40;96453.94;;;19.67;48.20
33163;BME280;29282;45.656;11.302;2022-12-10T12:01:30;96438.63;;;19.70;48.01
33163;BME280;29282;45.656;11.302;2022-12-10T12:15:27;96422.19;;;19.81;47.90
33163;BME280;29282;45.656;11.302;2022-12-10T12:18:40;96421.00;;;19.82;47.95
33163;BME280;29282;45.656;11.302;2022-12-10T12:24:02;96413.94;;;19.84;47.83
33163;BME280;29282;45.656;11.302;2022-12-10T12:26:35;96407.66;;;19.84;48.05
33163;BME280;29282;45.656;11.302;2022-12-10T12:31:46;96414.72;;;19.85;48.14
33163;BME280;29282;45.656;11.302;2022-12-10T12:36:43;96405.28;;;19.82;48.13
33163;BME280;29282;45.656;11.302;2022-12-10T12:44:19;96404.91;;;19.84;47.90
33163;BME280;29282;45.656;11.302;2022-12-10T12:46:47;96397.84;;;19.83;48.27
33163;BME280;29282;45.656;11.302;2022-12-10T12:49:43;96399.81;;;19.82;48.20
33163;BME280;29282;45.656;11.302;2022-12-10T12:52:43;96397.47;;;19.84;48.12
33163;BME280;29282;45.656;11.302;2022-12-10T12:55:36;96398.25;;;19.85;48.20
33163;BME280;29282;45.656;11.302;2022-12-10T13:00:51;96385.28;;;19.85;48.18
33163;BME280;29282;45.656;11.302;2022-12-10T13:06:14;96383.31;;;19.82;48.15
33163;BME280;29282;45.656;11.302;2022-12-10T13:09:32;96381.34;;;19.83;48.57
33163;BME280;29282;45.656;11.302;2022-12-10T13:11:34;96388.44;;;19.84;48.32
33163;BME280;29282;45.656;11.302;2022-12-10T13:19:24;96388.03;;;19.82;48.31
33163;BME280;29282;45.656;11.302;2022-12-10T13:24:22;96385.69;;;19.84;48.47
33163;BME280;29282;45.656;11.302;2022-12-10T13:27:32;96385.69;;;19.84;48.43
33163;BME280;29282;45.656;11.302;2022-12-10T13:37:57;96394.31;;;19.86;48.39
33163;BME280;29282;45.656;11.302;2022-12-10T13:46:49;96395.09;;;19.86;48.51
33163;BME280;29282;45.656;11.302;2022-12-10T13:49:22;96391.97;;;19.88;48.41
33163;BME280;29282;45.656;11.302;2022-12-10T13:57:12;96385.69;;;19.91;48.26
33163;BME280;29282;45.656;11.302;2022-12-10T14:00:11;96390.00;;;19.92;48.48
33163;BME280;29282;45.656;11.302;2022-12-10T14:03:24;96390.78;;;19.96;48.35
33163;BME280;29282;45.656;11.302;2022-12-10T14:05:55;96392.75;;;19.99;48.23
33163;BME280;29282;45.656;11.302;2022-12-10T14:08:28;96394.34;;;20.00;47.94
33163;BME280;29282;45.656;11.302;2022-12-10T14:10:56;96392.75;;;20.03;48.24
33163;BME280;29282;45.656;11.302;2022-12-10T14:14:00;96389.63;;;20.04;48.19
33163;BME280;29282;45.656;11.302;2022-12-10T14:16:21;96389.22;;;20.02;48.29
33163;BME280;29282;45.656;11.302;2022-12-10T14:18:56;96385.28;;;20.03;48.36
33163;BME280;29282;45.656;11.302;2022-12-10T14:21:24;96379.81;;;20.03;48.33
33163;BME280;29282;45.656;11.302;2022-12-10T14:23:51;96384.50;;;20.03;48.36
33163;BME280;29282;45.656;11.302;2022-12-10T14:26:20;96378.66;;;20.04;48.43
33163;BME280;29282;45.656;11.302;2022-12-10T14:28:55;96384.50;;;20.03;48.39
33163;BME280;29282;45.656;11.302;2022-12-10T14:31:26;96382.53;;;20.03;48.45
33163;BME280;29282;45.656;11.302;2022-12-10T14:33:57;96380.22;;;20.05;48.45
33163;BME280;29282;45.656;11.302;2022-12-10T14:36:45;96388.44;;;20.05;48.47
33163;BME280;29282;45.656;11.302;2022-12-10T14:39:17;96382.97;;;20.05;48.70
33163;BME280;29282;45.656;11.302;2022-12-10T14:41:47;96387.28;;;20.06;48.61
33163;BME280;29282;45.656;11.302;2022-12-10T14:44:15;96391.59;;;20.07;48.47
33163;BME280;29282;45.656;11.302;2022-12-10T14:46:42;96388.06;;;20.07;48.60
33163;BME280;29282;45.656;11.302;2022-12-10T14:49:19;96384.94;;;20.08;48.51
33163;BME280;29282;45.656;11.302;2022-12-10T14:51:46;96382.59;;;20.07;48.44
33163;BME280;29282;45.656;11.302;2022-12-10T14:54:29;96379.03;;;20.06;48.57
33163;BME280;29282;45.656;11.302;2022-12-10T14:56:59;96387.28;;;20.06;48.51
33163;BME280;29282;45.656;11.302;2022-12-10T14:59:38;96379.03;;;20.06;48.58
33163;BME280;29282;45.656;11.302;2022-12-10T15:02:16;96384.16;;;20.08;48.75